sensor_id;sensor_type;location;lat;lon;timestamp;pressure;altitude;pressure_sealevel;temperature;humidity
39793;BME280;26080;42.264;24.536;2023-04-04T00:02:13;97978.22;;;8.82;100.00
39793;BME280;26080;42.264;24.536;2023-04-04T00:04:39;97981.28;;;8.88;100.00
39793;BME280;26080;42.264;24.536;2023-04-04T00:07:04;97981.94;;;8.92;100.00
39793;BME280;26080;42.264;24.536;2023-04-04T00:09:30;97971.50;;;8.92;100.00
39793;BME280;26080;42.264;24.536;2023-04-04T00:11:55;97946.91;;;8.82;100.00
39793;BME280;26080;42.264;24.536;2023-04-04T00:14:21;97960.88;;;8.95;100.00
39793;BME280;26080;42.264;24.536;2023-04-04T00:16:46;97945.41;;;8.92;100.00
39793;BME280;26080;42.264;24.536;2023-04-04T00:19:12;97934.03;;;8.93;100.00
39793;BME280;26080;42.264;24.536;2023-04-04T00:21:43;97922.63;;;8.94;100.00
39793;BME280;26080;42.264;24.536;2023-04-04T00:24:09;97921.69;;;8.95;100.00
39793;BME280;26080;42.264;24.536;2023-04-04T00:26:35;97929.44;;;8.97;100.00
39793;BME280;26080;42.264;24.536;2023-04-04T00:29:00;97919.72;;;8.99;100.00
39793;BME280;26080;42.264;24.536;2023-04-04T00:31:26;97921.41;;;9.00;100.00
39793;BME280;26080;42.264;24.536;2023-04-04T00:33:51;97936.22;;;8.99;100.00
39793;BME280;26080;42.264;24.536;2023-04-04T00:36:17;97923.19;;;8.99;100.00
39793;BME280;26080;42.264;24.536;2023-04-04T00:38:42;97935.31;;;9.00;100.00
39793;BME280;26080;42.264;24.536;2023-04-04T00:41:08;97914.41;;;9.00;100.00
39793;BME280;26080;42.264;24.536;2023-04-04T00:43:34;97872.31;;;8.78;100.00
39793;BME280;26080;42.264;24.536;2023-04-04T00:45:59;97900.50;;;9.00;100.00
39793;BME280;26080;42.264;24.536;2023-04-04T00:48:25;97906.69;;;8.99;100.00
39793;BME280;26080;42.264;24.536;2023-04-04T00:50:50;97920.66;;;8.98;100.00
39793;BME280;26080;42.264;24.536;2023-04-04T00:53:16;97924.00;;;9.00;100.00
39793;BME280;26080;42.264;24.536;2023-04-04T00:55:42;97926.53;;;9.01;100.00
39793;BME280;26080;42.264;24.536;2023-04-04T00:58:08;97919.63;;;9.00;100.00
39793;BME280;26080;42.264;24.536;2023-04-04T01:00:35;97917.66;;;9.04;100.00
39793;BME280;26080;42.264;24.536;2023-04-04T01:03:01;97915.81;;;9.06;100.00
39793;BME280;26080;42.264;24.536;2023-04-04T01:05:30;97921.69;;;9.09;100.00
39793;BME280;26080;42.264;24.536;2023-04-04T01:07:56;97919.91;;;9.10;100.00
39793;BME280;26080;42.264;24.536;2023-04-04T01:10:21;97924.00;;;9.14;100.00
39793;BME280;26080;42.264;24.536;2023-04-04T01:12:47;97918.66;;;9.15;100.00
39793;BME280;26080;42.264;24.536;2023-04-04T01:15:12;97922.78;;;9.19;100.00
39793;BME280;26080;42.264;24.536;2023-04-04T01:17:39;97917.56;;;9.19;100.00
39793;BME280;26080;42.264;24.536;2023-04-04T01:20:13;97909.16;;;9.14;100.00
39793;BME280;26080;42.264;24.536;2023-04-04T01:22:41;97928.75;;;9.22;100.00
39793;BME280;26080;42.264;24.536;2023-04-04T01:25:08;97927.69;;;9.24;100.00
39793;BME280;26080;42.264;24.536;2023-04-04T01:27:33;97921.63;;;9.24;100.00
39793;BME280;26080;42.264;24.536;2023-04-04T01:29:59;97925.19;;;9.23;100.00
39793;BME280;26080;42.264;24.536;2023-04-04T01:38:13;97917.78;;;9.29;100.00
39793;BME280;26080;42.264;24.536;2023-04-04T01:40:51;97909.94;;;9.29;100.00
39793;BME280;26080;42.264;24.536;2023-04-04T01:43:19;97908.06;;;9.31;100.00
39793;BME280;26080;42.264;24.536;2023-04-04T01:45:45;97891.72;;;9.15;100.00
39793;BME280;26080;42.264;24.536;2023-04-04T01:48:11;97906.59;;;9.27;100.00
39793;BME280;26080;42.264;24.536;2023-04-04T01:50:36;97901.56;;;9.24;100.00
39793;BME280;26080;42.264;24.536;2023-04-04T01:53:02;97905.22;;;9.22;100.00
39793;BME280;26080;42.264;24.536;2023-04-04T01:55:27;97898.44;;;9.19;100.00
39793;BME280;26080;42.264;24.536;2023-04-04T01:57:54;97883.34;;;9.10;100.00
39793;BME280;26080;42.264;24.536;2023-04-04T02:00:19;97879.16;;;9.07;100.00
39793;BME280;26080;42.264;24.536;2023-04-04T02:02:45;97894.97;;;9.18;100.00
39793;BME280;26080;42.264;24.536;2023-04-04T02:05:10;97894.97;;;9.18;100.00
39793;BME280;26080;42.264;24.536;2023-04-04T02:07:36;97869.75;;;9.05;100.00
39793;BME280;26080;42.264;24.536;2023-04-04T02:10:02;97876.88;;;9.15;100.00
39793;BME280;26080;42.264;24.536;2023-04-04T02:12:28;97868.94;;;9.17;100.00
39793;BME280;26080;42.264;24.536;2023-04-04T02:14:53;97875.94;;;9.16;100.00
39793;BME280;26080;42.264;24.536;2023-04-04T02:17:18;97873.16;;;9.19;100.00
39793;BME280;26080;42.264;24.536;2023-04-04T02:19:44;97869.59;;;9.20;100.00
39793;BME280;26080;42.264;24.536;2023-04-04T02:22:10;97878.81;;;9.26;100.00
39793;BME280;26080;42.264;24.536;2023-04-04T02:24:35;97876.41;;;9.23;100.00
39793;BME280;26080;42.264;24.536;2023-04-04T02:27:01;97875.16;;;9.29;100.00
39793;BME280;26080;42.264;24.536;2023-04-04T02:29:26;97881.88;;;9.33;100.00
39793;BME280;26080;42.264;24.536;2023-04-04T02:31:52;97883.44;;;9.35;100.00
39793;BME280;26080;42.264;24.536;2023-04-04T02:34:17;97879.88;;;9.36;100.00
39793;BME280;26080;42.264;24.536;2023-04-04T02:36:43;97867.31;;;9.29;100.00
39793;BME280;26080;42.264;24.536;2023-04-04T02:39:09;97858.53;;;9.30;100.00
39793;BME280;26080;42.264;24.536;2023-04-04T02:41:34;97865.78;;;9.39;100.00
39793;BME280;26080;42.264;24.536;2023-04-04T02:44:00;97871.84;;;9.39;100.00
39793;BME280;26080;42.264;24.536;2023-04-04T02:46:25;97873.53;;;9.40;100.00
39793;BME280;26080;42.264;24.536;2023-04-04T02:48:51;97873.00;;;9.35;100.00
39793;BME280;26080;42.264;24.536;2023-04-04T02:51:17;97879.25;;;9.33;100.00
39793;BME280;26080;42.264;24.536;2023-04-04T02:53:42;97875.25;;;9.27;100.00
39793;BME280;26080;42.264;24.536;2023-04-04T02:56:08;97885.16;;;9.22;100.00
39793;BME280;26080;42.264;24.536;2023-04-04T02:58:33;97878.53;;;9.16;100.00
39793;BME280;26080;42.264;24.536;2023-04-04T03:00:59;97872.69;;;9.13;100.00
39793;BME280;26080;42.264;24.536;2023-04-04T03:03:24;97879.78;;;9.11;100.00
39793;BME280;26080;42.264;24.536;2023-04-04T03:05:50;97890.63;;;9.05;100.00
39793;BME280;26080;42.264;24.536;2023-04-04T03:08:16;97892.75;;;9.12;100.00
39793;BME280;26080;42.264;24.536;2023-04-04T03:10:43;97885.22;;;9.08;100.00
39793;BME280;26080;42.264;24.536;2023-04-04T03:13:09;97885.00;;;9.11;100.00
39793;BME280;26080;42.264;24.536;2023-04-04T03:15:34;97891.47;;;9.05;100.00
39793;BME280;26080;42.264;24.536;2023-04-04T03:18:01;97900.22;;;9.04;100.00
39793;BME280;26080;42.264;24.536;2023-04-04T03:20:27;97901.41;;;9.13;100.00
39793;BME280;26080;42.264;24.536;2023-04-04T03:22:52;97901.88;;;9.19;100.00
39793;BME280;26080;42.264;24.536;2023-04-04T03:25:18;97894.31;;;9.15;100.00
39793;BME280;26080;42.264;24.536;2023-04-04T03:27:43;97902.16;;;9.15;100.00
39793;BME280;26080;42.264;24.536;2023-04-04T03:30:10;97907.38;;;9.15;100.00
39793;BME280;26080;42.264;24.536;2023-04-04T03:32:36;97908.41;;;9.12;100.00
39793;BME280;26080;42.264;24.536;2023-04-04T03:35:02;97906.44;;;9.16;100.00
39793;BME280;26080;42.264;24.536;2023-04-04T03:37:31;97911.50;;;9.19;100.00
39793;BME280;26080;42.264;24.536;2023-04-04T03:40:00;97923.72;;;9.18;100.00
39793;BME280;26080;42.264;24.536;2023-04-04T03:42:33;97918.28;;;9.22;100.00
39793;BME280;26080;42.264;24.536;2023-04-04T03:44:58;97931.88;;;9.27;100.00
39793;BME280;26080;42.264;24.536;2023-04-04T03:47:24;97918.88;;;9.12;100.00
39793;BME280;26080;42.264;24.536;2023-04-04T03:49:50;97938.25;;;9.23;100.00
39793;BME280;26080;42.264;24.536;2023-04-04T03:52:16;97932.28;;;9.20;100.00
39793;BME280;26080;42.264;24.536;2023-04-04T03:54:43;97934.16;;;9.18;100.00
39793;BME280;26080;42.264;24.536;2023-04-04T03:57:09;97921.63;;;9.24;100.00
39793;BME280;26080;42.264;24.536;2023-04-04T03:59:34;97915.38;;;9.26;100.00
39793;BME280;26080;42.264;24.536;2023-04-04T04:02:00;97918.28;;;9.22;100.00
39793;BME280;26080;42.264;24.536;2023-04-04T04:04:25;97908.69;;;9.22;100.00
39793;BME280;26080;42.264;24.536;2023-04-04T04:06:50;97905.13;;;9.23;100.00
39793;BME280;26080;42.264;24.536;2023-04-04T04:09:16;97914.84;;;9.21;100.00
39793;BME280;26080;42.264;24.536;2023-04-04T04:11:41;97917.63;;;9.18;100.00
39793;BME280;26080;42.264;24.536;2023-04-04T04:14:07;97910.72;;;9.17;100.00
39793;BME280;26080;42.264;24.536;2023-04-04T04:16:32;97892.00;;;9.10;100.00
39793;BME280;26080;42.264;24.536;2023-04-04T04:18:58;97913.84;;;9.36;100.00
39793;BME280;26080;42.264;24.536;2023-04-04T04:21:24;97912.09;;;9.37;100.00
39793;BME280;26080;42.264;24.536;2023-04-04T04:23:50;97908.47;;;9.25;100.00
39793;BME280;26080;42.264;24.536;2023-04-04T04:26:15;97898.19;;;9.36;100.00
39793;BME280;26080;42.264;24.536;2023-04-04T04:28:41;97919.03;;;9.50;100.00
39793;BME280;26080;42.264;24.536;2023-04-04T04:31:08;97914.63;;;9.51;100.00
39793;BME280;26080;42.264;24.536;2023-04-04T04:33:34;97914.63;;;9.51;100.00
39793;BME280;26080;42.264;24.536;2023-04-04T04:36:00;97908.16;;;9.57;100.00
39793;BME280;26080;42.264;24.536;2023-04-04T04:38:26;97917.78;;;9.56;100.00
39793;BME280;26080;42.264;24.536;2023-04-04T04:40:53;97924.25;;;9.50;100.00
39793;BME280;26080;42.264;24.536;2023-04-04T04:43:18;97924.00;;;9.41;100.00
39793;BME280;26080;42.264;24.536;2023-04-04T04:45:43;97927.66;;;9.38;100.00
39793;BME280;26080;42.264;24.536;2023-04-04T04:48:09;97917.47;;;9.48;100.00
39793;BME280;26080;42.264;24.536;2023-04-04T04:50:35;97924.75;;;9.43;100.00
39793;BME280;26080;42.264;24.536;2023-04-04T04:53:00;97922.13;;;9.43;100.00
39793;BME280;26080;42.264;24.536;2023-04-04T04:55:25;97919.88;;;9.51;100.00
39793;BME280;26080;42.264;24.536;2023-04-04T04:57:51;97898.44;;;9.32;100.00
39793;BME280;26080;42.264;24.536;2023-04-04T05:00:17;97940.66;;;9.53;100.00
39793;BME280;26080;42.264;24.536;2023-04-04T05:02:43;97924.94;;;9.40;100.00
39793;BME280;26080;42.264;24.536;2023-04-04T05:05:08;97944.66;;;9.58;100.00
39793;BME280;26080;42.264;24.536;2023-04-04T05:07:34;97933.47;;;9.56;100.00
39793;BME280;26080;42.264;24.536;2023-04-04T05:10:00;97938.69;;;9.56;100.00
39793;BME280;26080;42.264;24.536;2023-04-04T05:12:26;97903.31;;;9.38;100.00
39793;BME280;26080;42.264;24.536;2023-04-04T05:14:51;97929.72;;;9.60;100.00
39793;BME280;26080;42.264;24.536;2023-04-04T05:17:17;97927.13;;;9.60;100.00
39793;BME280;26080;42.264;24.536;2023-04-04T05:19:43;97930.16;;;9.67;100.00
39793;BME280;26080;42.264;24.536;2023-04-04T05:22:08;97926.84;;;9.77;100.00
39793;BME280;26080;42.264;24.536;2023-04-04T05:24:34;97931.06;;;9.93;100.00
39793;BME280;26080;42.264;24.536;2023-04-04T05:26:59;97937.34;;;9.90;100.00
39793;BME280;26080;42.264;24.536;2023-04-04T05:29:25;97934.19;;;9.98;100.00
39793;BME280;26080;42.264;24.536;2023-04-04T05:31:50;97930.25;;;10.05;100.00
39793;BME280;26080;42.264;24.536;2023-04-04T05:34:15;97942.03;;;9.98;100.00
39793;BME280;26080;42.264;24.536;2023-04-04T05:36:41;97928.78;;;10.01;100.00
39793;BME280;26080;42.264;24.536;2023-04-04T05:39:06;97929.41;;;10.04;100.00
39793;BME280;26080;42.264;24.536;2023-04-04T05:41:32;97934.03;;;10.01;100.00
39793;BME280;26080;42.264;24.536;2023-04-04T05:43:58;97935.03;;;9.98;100.00
39793;BME280;26080;42.264;24.536;2023-04-04T05:46:23;97924.25;;;9.90;100.00
39793;BME280;26080;42.264;24.536;2023-04-04T05:48:50;97945.19;;;9.90;100.00
39793;BME280;26080;42.264;24.536;2023-04-04T05:51:16;97942.78;;;10.00;100.00
39793;BME280;26080;42.264;24.536;2023-04-04T05:53:41;97941.66;;;10.04;100.00
39793;BME280;26080;42.264;24.536;2023-04-04T05:56:10;97943.22;;;10.06;100.00
39793;BME280;26080;42.264;24.536;2023-04-04T05:58:35;97939.34;;;10.12;100.00
39793;BME280;26080;42.264;24.536;2023-04-04T06:01:01;97953.25;;;10.13;100.00
39793;BME280;26080;42.264;24.536;2023-04-04T06:03:30;97947.63;;;10.06;100.00
39793;BME280;26080;42.264;24.536;2023-04-04T06:05:55;97960.19;;;10.01;100.00
39793;BME280;26080;42.264;24.536;2023-04-04T06:08:24;97952.13;;;10.04;100.00
39793;BME280;26080;42.264;24.536;2023-04-04T06:10:53;97951.38;;;10.02;100.00
39793;BME280;26080;42.264;24.536;2023-04-04T06:13:20;97956.94;;;10.10;100.00
39793;BME280;26080;42.264;24.536;2023-04-04T06:15:46;97956.31;;;10.19;100.00
39793;BME280;26080;42.264;24.536;2023-04-04T06:18:11;97960.81;;;10.17;100.00
39793;BME280;26080;42.264;24.536;2023-04-04T06:20:37;97952.41;;;9.99;100.00
39793;BME280;26080;42.264;24.536;2023-04-04T06:23:02;97968.97;;;10.13;100.00
39793;BME280;26080;42.264;24.536;2023-04-04T06:25:29;97977.34;;;10.18;100.00
39793;BME280;26080;42.264;24.536;2023-04-04T06:27:55;97976.06;;;10.10;100.00
39793;BME280;26080;42.264;24.536;2023-04-04T06:30:27;97964.56;;;10.13;100.00
39793;BME280;26080;42.264;24.536;2023-04-04T06:32:56;97964.78;;;10.10;100.00
39793;BME280;26080;42.264;24.536;2023-04-04T06:35:21;97947.00;;;10.15;100.00
39793;BME280;26080;42.264;24.536;2023-04-04T06:37:55;97980.88;;;10.31;100.00
39793;BME280;26080;42.264;24.536;2023-04-04T06:40:22;97969.69;;;10.42;100.00
39793;BME280;26080;42.264;24.536;2023-04-04T06:42:48;97976.03;;;10.37;100.00
39793;BME280;26080;42.264;24.536;2023-04-04T06:45:14;97975.53;;;10.32;100.00
39793;BME280;26080;42.264;24.536;2023-04-04T06:47:41;97971.88;;;10.35;100.00
39793;BME280;26080;42.264;24.536;2023-04-04T06:50:07;97969.97;;;10.50;100.00
39793;BME280;26080;42.264;24.536;2023-04-04T06:52:33;97979.09;;;10.57;100.00
39793;BME280;26080;42.264;24.536;2023-04-04T06:54:58;97981.06;;;10.66;100.00
39793;BME280;26080;42.264;24.536;2023-04-04T06:57:24;97980.78;;;10.71;100.00
39793;BME280;26080;42.264;24.536;2023-04-04T06:59:49;97976.28;;;10.73;100.00
39793;BME280;26080;42.264;24.536;2023-04-04T07:02:15;97981.19;;;10.77;100.00
39793;BME280;26080;42.264;24.536;2023-04-04T07:04:40;97979.28;;;10.79;100.00
39793;BME280;26080;42.264;24.536;2023-04-04T07:07:07;97976.16;;;10.74;100.00
39793;BME280;26080;42.264;24.536;2023-04-04T07:09:32;97990.22;;;10.73;100.00
39793;BME280;26080;42.264;24.536;2023-04-04T07:11:57;97992.28;;;10.68;100.00
39793;BME280;26080;42.264;24.536;2023-04-04T07:14:23;97992.09;;;10.71;100.00
39793;BME280;26080;42.264;24.536;2023-04-04T07:16:50;97986.22;;;10.67;100.00
39793;BME280;26080;42.264;24.536;2023-04-04T07:19:16;97987.81;;;10.83;100.00
39793;BME280;26080;42.264;24.536;2023-04-04T07:21:41;97987.59;;;10.86;100.00
39793;BME280;26080;42.264;24.536;2023-04-04T07:24:07;97983.47;;;10.94;100.00
39793;BME280;26080;42.264;24.536;2023-04-04T07:26:33;97991.66;;;11.03;100.00
39793;BME280;26080;42.264;24.536;2023-04-04T07:28:59;97962.72;;;10.91;100.00
39793;BME280;26080;42.264;24.536;2023-04-04T07:31:25;97987.44;;;11.13;100.00
39793;BME280;26080;42.264;24.536;2023-04-04T07:33:51;97989.13;;;11.14;100.00
39793;BME280;26080;42.264;24.536;2023-04-04T07:36:19;97991.63;;;11.15;100.00
39793;BME280;26080;42.264;24.536;2023-04-04T07:38:45;97979.88;;;11.08;100.00
39793;BME280;26080;42.264;24.536;2023-04-04T07:41:11;97979.19;;;10.93;100.00
39793;BME280;26080;42.264;24.536;2023-04-04T07:43:36;97994.25;;;11.03;100.00
39793;BME280;26080;42.264;24.536;2023-04-04T07:46:02;97994.03;;;11.06;100.00
39793;BME280;26080;42.264;24.536;2023-04-04T07:48:28;97994.53;;;11.23;100.00
39793;BME280;26080;42.264;24.536;2023-04-04T07:50:53;98001.84;;;11.31;100.00
39793;BME280;26080;42.264;24.536;2023-04-04T07:53:18;97982.28;;;11.24;100.00
39793;BME280;26080;42.264;24.536;2023-04-04T07:55:44;97995.66;;;11.32;100.00
39793;BME280;26080;42.264;24.536;2023-04-04T07:58:09;97995.09;;;11.52;100.00
39793;BME280;26080;42.264;24.536;2023-04-04T08:00:35;97998.41;;;11.67;100.00
39793;BME280;26080;42.264;24.536;2023-04-04T08:03:00;97999.44;;;11.65;100.00
39793;BME280;26080;42.264;24.536;2023-04-04T08:05:27;98002.13;;;11.52;100.00
39793;BME280;26080;42.264;24.536;2023-04-04T08:07:52;98010.56;;;11.68;100.00
39793;BME280;26080;42.264;24.536;2023-04-04T08:10:18;98009.00;;;11.66;100.00
39793;BME280;26080;42.264;24.536;2023-04-04T08:12:45;98004.09;;;11.48;100.00
39793;BME280;26080;42.264;24.536;2023-04-04T08:15:11;98003.13;;;11.62;100.00
39793;BME280;26080;42.264;24.536;2023-04-04T08:17:36;97995.09;;;11.52;100.00
39793;BME280;26080;42.264;24.536;2023-04-04T08:20:03;98008.09;;;11.54;100.00
39793;BME280;26080;42.264;24.536;2023-04-04T08:22:29;98004.41;;;11.56;100.00
39793;BME280;26080;42.264;24.536;2023-04-04T08:24:54;98006.47;;;11.64;100.00
39793;BME280;26080;42.264;24.536;2023-04-04T08:27:20;98003.78;;;11.77;100.00
39793;BME280;26080;42.264;24.536;2023-04-04T08:29:46;98010.56;;;11.81;100.00
39793;BME280;26080;42.264;24.536;2023-04-04T08:32:15;98006.84;;;12.07;100.00
39793;BME280;26080;42.264;24.536;2023-04-04T08:34:41;98018.53;;;12.38;100.00
39793;BME280;26080;42.264;24.536;2023-04-04T08:37:07;98007.47;;;12.57;100.00
39793;BME280;26080;42.264;24.536;2023-04-04T08:39:32;98018.94;;;12.56;100.00
39793;BME280;26080;42.264;24.536;2023-04-04T08:42:04;98015.50;;;12.67;100.00
39793;BME280;26080;42.264;24.536;2023-04-04T08:44:31;98009.16;;;12.69;100.00
39793;BME280;26080;42.264;24.536;2023-04-04T08:47:04;98011.91;;;12.68;100.00
39793;BME280;26080;42.264;24.536;2023-04-04T08:49:36;98004.63;;;12.71;100.00
39793;BME280;26080;42.264;24.536;2023-04-04T08:52:02;98012.53;;;12.83;100.00
39793;BME280;26080;42.264;24.536;2023-04-04T08:54:30;98019.47;;;12.84;100.00
39793;BME280;26080;42.264;24.536;2023-04-04T08:56:58;98024.47;;;12.75;100.00
39793;BME280;26080;42.264;24.536;2023-04-04T08:59:24;98020.28;;;12.62;100.00
39793;BME280;26080;42.264;24.536;2023-04-04T09:01:59;98025.63;;;12.60;100.00
39793;BME280;26080;42.264;24.536;2023-04-04T09:04:29;98017.25;;;12.55;100.00
39793;BME280;26080;42.264;24.536;2023-04-04T09:06:56;98017.50;;;12.52;100.00
39793;BME280;26080;42.264;24.536;2023-04-04T09:09:23;98034.31;;;12.61;100.00
39793;BME280;26080;42.264;24.536;2023-04-04T09:11:49;98036.28;;;12.70;100.00
39793;BME280;26080;42.264;24.536;2023-04-04T09:14:17;98029.91;;;12.50;100.00
39793;BME280;26080;42.264;24.536;2023-04-04T09:16:44;98041.09;;;12.41;100.00
39793;BME280;26080;42.264;24.536;2023-04-04T09:19:09;98026.59;;;12.24;100.00
39793;BME280;26080;42.264;24.536;2023-04-04T09:21:36;98033.03;;;12.20;100.00
39793;BME280;26080;42.264;24.536;2023-04-04T09:24:01;98033.41;;;12.27;100.00
39793;BME280;26080;42.264;24.536;2023-04-04T09:26:27;98039.72;;;12.24;100.00
39793;BME280;26080;42.264;24.536;2023-04-04T09:28:53;98026.66;;;12.11;100.00
39793;BME280;26080;42.264;24.536;2023-04-04T09:31:19;98035.50;;;12.10;100.00
39793;BME280;26080;42.264;24.536;2023-04-04T09:34:00;98034.66;;;11.86;100.00
39793;BME280;26080;42.264;24.536;2023-04-04T09:36:27;98035.72;;;11.83;100.00
39793;BME280;26080;42.264;24.536;2023-04-04T09:38:53;98010.72;;;11.78;100.00
39793;BME280;26080;42.264;24.536;2023-04-04T09:41:31;98039.63;;;12.02;100.00
39793;BME280;26080;42.264;24.536;2023-04-04T09:43:59;98041.69;;;12.09;100.00
39793;BME280;26080;42.264;24.536;2023-04-04T09:46:25;98034.47;;;12.00;100.00
39793;BME280;26080;42.264;24.536;2023-04-04T09:48:52;98043.97;;;12.14;100.00
39793;BME280;26080;42.264;24.536;2023-04-04T09:51:19;98041.50;;;12.24;100.00
39793;BME280;26080;42.264;24.536;2023-04-04T09:53:49;98042.59;;;12.32;100.00
39793;BME280;26080;42.264;24.536;2023-04-04T09:56:15;98053.09;;;12.32;100.00
39793;BME280;26080;42.264;24.536;2023-04-04T09:58:45;98043.56;;;12.31;100.00
39793;BME280;26080;42.264;24.536;2023-04-04T10:01:11;98041.84;;;12.54;100.00
39793;BME280;26080;42.264;24.536;2023-04-04T10:03:38;98046.78;;;12.70;100.00
39793;BME280;26080;42.264;24.536;2023-04-04T10:06:05;98046.09;;;12.79;100.00
39793;BME280;26080;42.264;24.536;2023-04-04T10:08:32;98047.41;;;12.96;100.00
39793;BME280;26080;42.264;24.536;2023-04-04T10:11:02;98048.13;;;12.98;100.00
39793;BME280;26080;42.264;24.536;2023-04-04T10:13:31;98040.44;;;13.30;100.00
39793;BME280;26080;42.264;24.536;2023-04-04T10:15:58;98041.63;;;13.37;100.00
39793;BME280;26080;42.264;24.536;2023-04-04T10:18:27;98042.69;;;13.57;100.00
39793;BME280;26080;42.264;24.536;2023-04-04T10:20:55;98040.50;;;13.73;100.00
39793;BME280;26080;42.264;24.536;2023-04-04T10:23:22;98040.91;;;14.01;100.00
39793;BME280;26080;42.264;24.536;2023-04-04T10:25:50;98034.38;;;14.16;100.00
39793;BME280;26080;42.264;24.536;2023-04-04T10:28:16;98036.47;;;14.33;100.00
39793;BME280;26080;42.264;24.536;2023-04-04T10:30:51;98035.44;;;14.57;100.00
39793;BME280;26080;42.264;24.536;2023-04-04T10:33:26;98041.91;;;14.52;100.00
39793;BME280;26080;42.264;24.536;2023-04-04T10:35:57;98041.63;;;14.67;100.00
39793;BME280;26080;42.264;24.536;2023-04-04T10:38:28;98038.06;;;14.77;100.00
39793;BME280;26080;42.264;24.536;2023-04-04T10:40:58;98035.38;;;14.68;100.00
39793;BME280;26080;42.264;24.536;2023-04-04T10:43:25;98033.47;;;14.79;100.00
39793;BME280;26080;42.264;24.536;2023-04-04T10:45:56;98034.50;;;15.09;100.00
39793;BME280;26080;42.264;24.536;2023-04-04T10:48:26;98029.25;;;15.19;100.00
39793;BME280;26080;42.264;24.536;2023-04-04T10:50:52;98017.03;;;15.18;100.00
39793;BME280;26080;42.264;24.536;2023-04-04T10:53:19;98036.72;;;14.83;100.00
39793;BME280;26080;42.264;24.536;2023-04-04T10:55:46;98029.94;;;14.90;100.00
39793;BME280;26080;42.264;24.536;2023-04-04T10:58:12;98023.13;;;15.08;100.00
39793;BME280;26080;42.264;24.536;2023-04-04T11:00:49;98010.19;;;15.46;100.00
39793;BME280;26080;42.264;24.536;2023-04-04T11:03:16;98009.09;;;15.48;100.00
39793;BME280;26080;42.264;24.536;2023-04-04T11:05:42;98004.19;;;15.64;100.00
39793;BME280;26080;42.264;24.536;2023-04-04T11:08:18;98007.09;;;15.71;100.00
39793;BME280;26080;42.264;24.536;2023-04-04T11:10:50;98006.69;;;15.66;100.00
39793;BME280;26080;42.264;24.536;2023-04-04T11:13:24;98013.78;;;15.85;100.00
39793;BME280;26080;42.264;24.536;2023-04-04T11:18:19;98010.38;;;16.33;100.00
39793;BME280;26080;42.264;24.536;2023-04-04T11:20:46;98015.47;;;16.44;100.00
39793;BME280;26080;42.264;24.536;2023-04-04T11:23:20;98015.47;;;16.44;100.00
39793;BME280;26080;42.264;24.536;2023-04-04T11:39:06;98018.28;;;14.83;100.00
39793;BME280;26080;42.264;24.536;2023-04-04T11:44:32;98012.94;;;14.73;100.00
39793;BME280;26080;42.264;24.536;2023-04-04T11:47:08;98008.44;;;14.85;100.00
39793;BME280;26080;42.264;24.536;2023-04-04T11:49:42;98011.34;;;14.92;100.00
39793;BME280;26080;42.264;24.536;2023-04-04T11:52:10;98003.72;;;14.89;100.00
39793;BME280;26080;42.264;24.536;2023-04-04T11:54:36;97990.31;;;14.71;100.00
39793;BME280;26080;42.264;24.536;2023-04-04T11:57:05;97997.06;;;14.64;100.00
39793;BME280;26080;42.264;24.536;2023-04-04T11:59:38;98000.22;;;14.58;100.00
39793;BME280;26080;42.264;24.536;2023-04-04T12:02:03;98004.53;;;14.59;100.00
39793;BME280;26080;42.264;24.536;2023-04-04T12:04:29;98005.44;;;14.37;100.00
39793;BME280;26080;42.264;24.536;2023-04-04T12:06:55;98000.56;;;14.32;100.00
39793;BME280;26080;42.264;24.536;2023-04-04T12:09:25;97998.63;;;14.34;100.00
39793;BME280;26080;42.264;24.536;2023-04-04T12:11:50;97998.84;;;14.42;100.00
39793;BME280;26080;42.264;24.536;2023-04-04T12:14:23;98001.13;;;14.68;100.00
39793;BME280;26080;42.264;24.536;2023-04-04T12:16:51;98003.75;;;14.68;100.00
39793;BME280;26080;42.264;24.536;2023-04-04T12:19:17;98003.16;;;14.64;100.00
39793;BME280;26080;42.264;24.536;2023-04-04T12:21:45;98002.84;;;14.58;100.00
39793;BME280;26080;42.264;24.536;2023-04-04T12:24:11;97987.19;;;13.71;100.00
39793;BME280;26080;42.264;24.536;2023-04-04T12:26:39;98006.47;;;13.38;100.00
39793;BME280;26080;42.264;24.536;2023-04-04T12:29:05;97999.16;;;13.08;100.00
39793;BME280;26080;42.264;24.536;2023-04-04T12:31:32;98000.84;;;12.98;100.00
39793;BME280;26080;42.264;24.536;2023-04-04T12:33:58;97993.31;;;12.93;100.00
39793;BME280;26080;42.264;24.536;2023-04-04T12:36:31;97984.31;;;12.73;100.00
39793;BME280;26080;42.264;24.536;2023-04-04T12:39:01;97987.56;;;12.66;100.00
39793;BME280;26080;42.264;24.536;2023-04-04T12:41:27;98004.66;;;12.83;100.00
39793;BME280;26080;42.264;24.536;2023-04-04T12:44:05;98011.81;;;12.81;100.00
39793;BME280;26080;42.264;24.536;2023-04-04T12:46:36;98003.94;;;12.92;100.00
39793;BME280;26080;42.264;24.536;2023-04-04T12:49:05;98004.16;;;13.00;100.00
39793;BME280;26080;42.264;24.536;2023-04-04T12:51:31;98007.03;;;12.86;100.00
39793;BME280;26080;42.264;24.536;2023-04-04T12:53:58;98005.81;;;12.67;100.00
39793;BME280;26080;42.264;24.536;2023-04-04T12:56:27;98000.91;;;12.52;100.00
39793;BME280;26080;42.264;24.536;2023-04-04T12:58:59;98010.81;;;12.48;100.00
39793;BME280;26080;42.264;24.536;2023-04-04T13:01:26;98005.69;;;12.58;100.00
39793;BME280;26080;42.264;24.536;2023-04-04T13:03:52;98006.03;;;12.53;100.00
39793;BME280;26080;42.264;24.536;2023-04-04T13:06:17;97987.75;;;12.40;100.00
39793;BME280;26080;42.264;24.536;2023-04-04T13:08:53;98015.78;;;12.40;100.00